sensor_id;sensor_type;location;lat;lon;timestamp;P1;durP1;ratioP1;P2;durP2;ratioP2
13720;SDS011;6932;51.438;5.470;2022-08-16T00:00:48;8.93;;;5.93;;
13720;SDS011;6932;51.438;5.470;2022-08-16T00:03:15;8.40;;;5.63;;
13720;SDS011;6932;51.438;5.470;2022-08-16T00:05:42;8.57;;;5.80;;
13720;SDS011;6932;51.438;5.470;2022-08-16T00:08:08;11.97;;;6.07;;
13720;SDS011;6932;51.438;5.470;2022-08-16T00:10:35;12.37;;;6.57;;
13720;SDS011;6932;51.438;5.470;2022-08-16T00:13:02;8.87;;;6.13;;
13720;SDS011;6932;51.438;5.470;2022-08-16T00:15:32;10.80;;;6.87;;
13720;SDS011;6932;51.438;5.470;2022-08-16T00:18:08;10.23;;;6.60;;
13720;SDS011;6932;51.438;5.470;2022-08-16T00:20:36;9.63;;;6.63;;
13720;SDS011;6932;51.438;5.470;2022-08-16T00:23:04;8.80;;;6.40;;
13720;SDS011;6932;51.438;5.470;2022-08-16T00:25:31;11.17;;;7.07;;
13720;SDS011;6932;51.438;5.470;2022-08-16T00:27:57;10.50;;;6.93;;
13720;SDS011;6932;51.438;5.470;2022-08-16T00:30:24;10.30;;;7.20;;
13720;SDS011;6932;51.438;5.470;2022-08-16T00:32:51;9.47;;;6.97;;
13720;SDS011;6932;51.438;5.470;2022-08-16T00:35:27;9.70;;;6.63;;
13720;SDS011;6932;51.438;5.470;2022-08-16T00:37:58;9.57;;;6.77;;
13720;SDS011;6932;51.438;5.470;2022-08-16T00:43:02;10.10;;;7.03;;
13720;SDS011;6932;51.438;5.470;2022-08-16T00:45:41;9.20;;;6.70;;
13720;SDS011;6932;51.438;5.470;2022-08-16T00:48:17;10.23;;;6.60;;
13720;SDS011;6932;51.438;5.470;2022-08-16T00:50:44;9.97;;;6.70;;
13720;SDS011;6932;51.438;5.470;2022-08-16T00:53:11;10.80;;;6.97;;
13720;SDS011;6932;51.438;5.470;2022-08-16T00:55:41;10.23;;;6.37;;
13720;SDS011;6932;51.438;5.470;2022-08-16T00:58:16;9.30;;;6.63;;
13720;SDS011;6932;51.438;5.470;2022-08-16T01:00:45;10.77;;;7.20;;
13720;SDS011;6932;51.438;5.470;2022-08-16T01:03:14;9.10;;;6.33;;
13720;SDS011;6932;51.438;5.470;2022-08-16T01:05:43;10.70;;;6.60;;
13720;SDS011;6932;51.438;5.470;2022-08-16T01:08:11;8.57;;;6.13;;
13720;SDS011;6932;51.438;5.470;2022-08-16T01:10:40;9.70;;;6.40;;
13720;SDS011;6932;51.438;5.470;2022-08-16T01:13:08;8.60;;;6.40;;
13720;SDS011;6932;51.438;5.470;2022-08-16T01:15:40;9.80;;;6.20;;
13720;SDS011;6932;51.438;5.470;2022-08-16T01:18:13;9.23;;;5.90;;
13720;SDS011;6932;51.438;5.470;2022-08-16T01:20:45;8.23;;;5.90;;
13720;SDS011;6932;51.438;5.470;2022-08-16T01:23:33;7.53;;;5.77;;
13720;SDS011;6932;51.438;5.470;2022-08-16T01:26:18;8.17;;;5.97;;
13720;SDS011;6932;51.438;5.470;2022-08-16T01:28:44;8.87;;;6.40;;
13720;SDS011;6932;51.438;5.470;2022-08-16T01:31:13;9.50;;;5.70;;
13720;SDS011;6932;51.438;5.470;2022-08-16T01:33:42;9.87;;;6.50;;
13720;SDS011;6932;51.438;5.470;2022-08-16T01:36:08;9.10;;;6.03;;
13720;SDS011;6932;51.438;5.470;2022-08-16T01:38:35;9.07;;;6.40;;
13720;SDS011;6932;51.438;5.470;2022-08-16T01:41:12;9.10;;;6.10;;
13720;SDS011;6932;51.438;5.470;2022-08-16T01:43:43;9.33;;;6.60;;
13720;SDS011;6932;51.438;5.470;2022-08-16T01:49:15;11.23;;;7.07;;
13720;SDS011;6932;51.438;5.470;2022-08-16T01:51:57;10.43;;;6.50;;
13720;SDS011;6932;51.438;5.470;2022-08-16T01:54:28;9.30;;;6.60;;
13720;SDS011;6932;51.438;5.470;2022-08-16T01:56:54;8.90;;;6.67;;
13720;SDS011;6932;51.438;5.470;2022-08-16T01:59:21;11.23;;;7.13;;
13720;SDS011;6932;51.438;5.470;2022-08-16T02:01:47;9.87;;;6.77;;
13720;SDS011;6932;51.438;5.470;2022-08-16T02:04:17;9.37;;;6.63;;
13720;SDS011;6932;51.438;5.470;2022-08-16T02:06:44;9.00;;;6.53;;
13720;SDS011;6932;51.438;5.470;2022-08-16T02:09:10;9.63;;;6.70;;
13720;SDS011;6932;51.438;5.470;2022-08-16T02:11:37;9.20;;;6.80;;
13720;SDS011;6932;51.438;5.470;2022-08-16T02:14:08;9.60;;;6.40;;
13720;SDS011;6932;51.438;5.470;2022-08-16T02:16:34;9.60;;;6.77;;
13720;SDS011;6932;51.438;5.470;2022-08-16T02:19:00;8.83;;;6.20;;
13720;SDS011;6932;51.438;5.470;2022-08-16T02:21:28;9.53;;;6.57;;
13720;SDS011;6932;51.438;5.470;2022-08-16T02:23:54;8.67;;;6.57;;
13720;SDS011;6932;51.438;5.470;2022-08-16T02:26:20;9.93;;;6.77;;
13720;SDS011;6932;51.438;5.470;2022-08-16T02:28:46;11.23;;;7.00;;
13720;SDS011;6932;51.438;5.470;2022-08-16T02:31:13;10.87;;;7.00;;
13720;SDS011;6932;51.438;5.470;2022-08-16T02:33:41;8.80;;;6.10;;
13720;SDS011;6932;51.438;5.470;2022-08-16T02:36:08;10.57;;;6.80;;
13720;SDS011;6932;51.438;5.470;2022-08-16T02:38:36;9.73;;;6.60;;
13720;SDS011;6932;51.438;5.470;2022-08-16T02:41:03;11.10;;;6.90;;
13720;SDS011;6932;51.438;5.470;2022-08-16T02:43:31;9.93;;;6.70;;
13720;SDS011;6932;51.438;5.470;2022-08-16T02:45:59;9.57;;;6.77;;
13720;SDS011;6932;51.438;5.470;2022-08-16T02:48:26;9.67;;;6.80;;
13720;SDS011;6932;51.438;5.470;2022-08-16T02:50:55;10.10;;;7.00;;
13720;SDS011;6932;51.438;5.470;2022-08-16T02:53:23;9.50;;;6.87;;
13720;SDS011;6932;51.438;5.470;2022-08-16T02:55:49;9.83;;;6.80;;
13720;SDS011;6932;51.438;5.470;2022-08-16T02:58:16;10.43;;;7.10;;
13720;SDS011;6932;51.438;5.470;2022-08-16T03:00:44;9.83;;;6.73;;
13720;SDS011;6932;51.438;5.470;2022-08-16T03:03:10;9.47;;;6.53;;
13720;SDS011;6932;51.438;5.470;2022-08-16T03:05:35;9.50;;;6.80;;
13720;SDS011;6932;51.438;5.470;2022-08-16T03:08:01;9.73;;;6.90;;
13720;SDS011;6932;51.438;5.470;2022-08-16T03:10:27;10.33;;;6.80;;
13720;SDS011;6932;51.438;5.470;2022-08-16T03:12:53;12.03;;;7.53;;
13720;SDS011;6932;51.438;5.470;2022-08-16T03:15:19;10.63;;;7.77;;
13720;SDS011;6932;51.438;5.470;2022-08-16T03:17:46;11.27;;;7.43;;
13720;SDS011;6932;51.438;5.470;2022-08-16T03:20:12;11.50;;;7.90;;
13720;SDS011;6932;51.438;5.470;2022-08-16T03:22:39;10.50;;;7.60;;
13720;SDS011;6932;51.438;5.470;2022-08-16T03:25:07;12.93;;;7.60;;
13720;SDS011;6932;51.438;5.470;2022-08-16T03:27:37;10.77;;;8.20;;
13720;SDS011;6932;51.438;5.470;2022-08-16T03:30:06;11.23;;;7.40;;
13720;SDS011;6932;51.438;5.470;2022-08-16T03:32:46;11.43;;;7.80;;
13720;SDS011;6932;51.438;5.470;2022-08-16T03:35:14;10.67;;;7.70;;
13720;SDS011;6932;51.438;5.470;2022-08-16T03:37:43;10.70;;;7.73;;
13720;SDS011;6932;51.438;5.470;2022-08-16T03:40:10;10.83;;;8.07;;
13720;SDS011;6932;51.438;5.470;2022-08-16T03:42:38;11.53;;;7.60;;
13720;SDS011;6932;51.438;5.470;2022-08-16T03:45:04;13.40;;;8.23;;
13720;SDS011;6932;51.438;5.470;2022-08-16T03:47:31;10.53;;;7.37;;
13720;SDS011;6932;51.438;5.470;2022-08-16T03:49:57;10.67;;;7.40;;
13720;SDS011;6932;51.438;5.470;2022-08-16T03:52:23;12.07;;;8.07;;
13720;SDS011;6932;51.438;5.470;2022-08-16T03:54:49;11.47;;;7.87;;
13720;SDS011;6932;51.438;5.470;2022-08-16T03:57:16;11.97;;;8.13;;
13720;SDS011;6932;51.438;5.470;2022-08-16T03:59:42;10.23;;;7.87;;
13720;SDS011;6932;51.438;5.470;2022-08-16T04:02:08;12.47;;;7.83;;
13720;SDS011;6932;51.438;5.470;2022-08-16T04:04:36;12.10;;;8.37;;
13720;SDS011;6932;51.438;5.470;2022-08-16T04:07:03;11.00;;;8.23;;
13720;SDS011;6932;51.438;5.470;2022-08-16T04:09:31;11.43;;;8.10;;
13720;SDS011;6932;51.438;5.470;2022-08-16T04:11:58;10.80;;;7.80;;
13720;SDS011;6932;51.438;5.470;2022-08-16T04:14:24;12.03;;;8.10;;
13720;SDS011;6932;51.438;5.470;2022-08-16T04:16:50;11.30;;;8.20;;
13720;SDS011;6932;51.438;5.470;2022-08-16T04:19:16;10.47;;;7.60;;
13720;SDS011;6932;51.438;5.470;2022-08-16T04:21:42;10.57;;;7.87;;
13720;SDS011;6932;51.438;5.470;2022-08-16T04:24:08;11.80;;;8.37;;
13720;SDS011;6932;51.438;5.470;2022-08-16T04:26:34;11.40;;;7.73;;
13720;SDS011;6932;51.438;5.470;2022-08-16T04:29:00;12.53;;;8.20;;
13720;SDS011;6932;51.438;5.470;2022-08-16T04:31:26;11.47;;;8.30;;
13720;SDS011;6932;51.438;5.470;2022-08-16T04:33:52;12.00;;;8.53;;
13720;SDS011;6932;51.438;5.470;2022-08-16T04:36:23;11.47;;;8.23;;
13720;SDS011;6932;51.438;5.470;2022-08-16T04:38:51;11.63;;;8.50;;
13720;SDS011;6932;51.438;5.470;2022-08-16T04:41:18;13.07;;;8.47;;
13720;SDS011;6932;51.438;5.470;2022-08-16T04:43:45;12.80;;;8.87;;
13720;SDS011;6932;51.438;5.470;2022-08-16T04:46:11;12.17;;;8.53;;
13720;SDS011;6932;51.438;5.470;2022-08-16T04:48:41;13.03;;;9.00;;
13720;SDS011;6932;51.438;5.470;2022-08-16T04:51:08;13.53;;;8.80;;
13720;SDS011;6932;51.438;5.470;2022-08-16T04:53:35;12.77;;;8.53;;
13720;SDS011;6932;51.438;5.470;2022-08-16T04:56:02;12.47;;;8.60;;
13720;SDS011;6932;51.438;5.470;2022-08-16T04:58:28;12.60;;;8.30;;
13720;SDS011;6932;51.438;5.470;2022-08-16T05:00:55;11.63;;;7.83;;
13720;SDS011;6932;51.438;5.470;2022-08-16T05:03:21;11.73;;;8.27;;
13720;SDS011;6932;51.438;5.470;2022-08-16T05:05:48;12.27;;;8.17;;
13720;SDS011;6932;51.438;5.470;2022-08-16T05:08:15;11.00;;;7.90;;
13720;SDS011;6932;51.438;5.470;2022-08-16T05:10:41;9.83;;;7.13;;
13720;SDS011;6932;51.438;5.470;2022-08-16T05:13:07;11.60;;;7.70;;
13720;SDS011;6932;51.438;5.470;2022-08-16T05:15:33;10.67;;;7.60;;
13720;SDS011;6932;51.438;5.470;2022-08-16T05:18:00;12.00;;;7.50;;
13720;SDS011;6932;51.438;5.470;2022-08-16T05:20:27;11.40;;;7.40;;
13720;SDS011;6932;51.438;5.470;2022-08-16T05:22:53;11.63;;;7.13;;
13720;SDS011;6932;51.438;5.470;2022-08-16T05:25:19;10.97;;;7.20;;
13720;SDS011;6932;51.438;5.470;2022-08-16T05:27:45;9.63;;;7.07;;
13720;SDS011;6932;51.438;5.470;2022-08-16T05:30:11;11.77;;;7.77;;
13720;SDS011;6932;51.438;5.470;2022-08-16T05:32:38;11.40;;;7.17;;
13720;SDS011;6932;51.438;5.470;2022-08-16T05:35:06;11.17;;;6.97;;
13720;SDS011;6932;51.438;5.470;2022-08-16T05:37:36;9.53;;;6.40;;
13720;SDS011;6932;51.438;5.470;2022-08-16T05:40:03;10.87;;;6.97;;
13720;SDS011;6932;51.438;5.470;2022-08-16T05:42:32;9.43;;;7.00;;
13720;SDS011;6932;51.438;5.470;2022-08-16T05:44:57;9.37;;;6.90;;
13720;SDS011;6932;51.438;5.470;2022-08-16T05:47:25;10.07;;;6.20;;
13720;SDS011;6932;51.438;5.470;2022-08-16T05:49:51;10.53;;;7.17;;
13720;SDS011;6932;51.438;5.470;2022-08-16T05:52:17;8.87;;;6.60;;
13720;SDS011;6932;51.438;5.470;2022-08-16T05:54:44;10.07;;;6.80;;
13720;SDS011;6932;51.438;5.470;2022-08-16T05:57:10;9.77;;;6.93;;
13720;SDS011;6932;51.438;5.470;2022-08-16T05:59:36;10.27;;;6.77;;
13720;SDS011;6932;51.438;5.470;2022-08-16T06:02:03;9.67;;;6.57;;
13720;SDS011;6932;51.438;5.470;2022-08-16T06:04:30;9.43;;;6.30;;
13720;SDS011;6932;51.438;5.470;2022-08-16T06:06:57;10.27;;;6.63;;
13720;SDS011;6932;51.438;5.470;2022-08-16T06:09:23;10.23;;;6.63;;
13720;SDS011;6932;51.438;5.470;2022-08-16T06:11:50;9.13;;;6.73;;
13720;SDS011;6932;51.438;5.470;2022-08-16T06:14:17;10.53;;;7.00;;
13720;SDS011;6932;51.438;5.470;2022-08-16T06:16:43;11.20;;;6.70;;
13720;SDS011;6932;51.438;5.470;2022-08-16T06:19:09;11.03;;;6.57;;
13720;SDS011;6932;51.438;5.470;2022-08-16T06:21:35;10.23;;;7.10;;
13720;SDS011;6932;51.438;5.470;2022-08-16T06:24:01;10.93;;;7.10;;
13720;SDS011;6932;51.438;5.470;2022-08-16T06:26:28;10.00;;;7.07;;
13720;SDS011;6932;51.438;5.470;2022-08-16T06:28:54;10.43;;;7.00;;
13720;SDS011;6932;51.438;5.470;2022-08-16T06:31:20;11.37;;;7.70;;
13720;SDS011;6932;51.438;5.470;2022-08-16T06:33:45;9.87;;;7.07;;
13720;SDS011;6932;51.438;5.470;2022-08-16T06:36:12;11.70;;;7.37;;
13720;SDS011;6932;51.438;5.470;2022-08-16T06:38:39;9.73;;;7.03;;
13720;SDS011;6932;51.438;5.470;2022-08-16T06:41:05;10.90;;;7.15;;
13720;SDS011;6932;51.438;5.470;2022-08-16T06:43:33;9.00;;;6.60;;
13720;SDS011;6932;51.438;5.470;2022-08-16T06:46:02;10.05;;;7.10;;
13720;SDS011;6932;51.438;5.470;2022-08-16T06:48:33;10.35;;;7.30;;
13720;SDS011;6932;51.438;5.470;2022-08-16T06:51:03;10.45;;;7.28;;
13720;SDS011;6932;51.438;5.470;2022-08-16T06:53:30;12.73;;;8.00;;
13720;SDS011;6932;51.438;5.470;2022-08-16T06:55:59;10.48;;;7.38;;
13720;SDS011;6932;51.438;5.470;2022-08-16T06:58:29;10.70;;;6.90;;
13720;SDS011;6932;51.438;5.470;2022-08-16T07:00:55;11.25;;;7.40;;
13720;SDS011;6932;51.438;5.470;2022-08-16T07:03:20;9.68;;;6.78;;
13720;SDS011;6932;51.438;5.470;2022-08-16T07:05:46;10.70;;;7.45;;
13720;SDS011;6932;51.438;5.470;2022-08-16T07:08:13;9.93;;;7.32;;
13720;SDS011;6932;51.438;5.470;2022-08-16T07:10:38;11.23;;;7.40;;
13720;SDS011;6932;51.438;5.470;2022-08-16T07:13:04;11.13;;;7.32;;
13720;SDS011;6932;51.438;5.470;2022-08-16T07:15:30;11.30;;;7.72;;
13720;SDS011;6932;51.438;5.470;2022-08-16T07:17:56;13.77;;;6.95;;
13720;SDS011;6932;51.438;5.470;2022-08-16T07:20:23;10.45;;;7.50;;
13720;SDS011;6932;51.438;5.470;2022-08-16T07:22:50;11.50;;;7.30;;
13720;SDS011;6932;51.438;5.470;2022-08-16T07:25:17;10.25;;;7.30;;
13720;SDS011;6932;51.438;5.470;2022-08-16T07:27:42;11.35;;;8.00;;
13720;SDS011;6932;51.438;5.470;2022-08-16T07:30:10;10.45;;;7.60;;
13720;SDS011;6932;51.438;5.470;2022-08-16T07:32:38;15.30;;;7.93;;
13720;SDS011;6932;51.438;5.470;2022-08-16T07:35:04;10.75;;;7.80;;
13720;SDS011;6932;51.438;5.470;2022-08-16T07:37:30;10.73;;;7.47;;
13720;SDS011;6932;51.438;5.470;2022-08-16T07:39:56;10.90;;;7.05;;
13720;SDS011;6932;51.438;5.470;2022-08-16T07:42:22;10.85;;;7.30;;
13720;SDS011;6932;51.438;5.470;2022-08-16T07:44:48;10.45;;;7.20;;
13720;SDS011;6932;51.438;5.470;2022-08-16T07:47:14;9.85;;;7.32;;
13720;SDS011;6932;51.438;5.470;2022-08-16T07:49:40;12.73;;;6.80;;
13720;SDS011;6932;51.438;5.470;2022-08-16T07:52:05;9.25;;;6.85;;
13720;SDS011;6932;51.438;5.470;2022-08-16T07:54:31;9.50;;;6.60;;
13720;SDS011;6932;51.438;5.470;2022-08-16T07:56:57;11.35;;;7.15;;
13720;SDS011;6932;51.438;5.470;2022-08-16T07:59:23;10.25;;;7.00;;
13720;SDS011;6932;51.438;5.470;2022-08-16T08:01:50;8.85;;;6.30;;
13720;SDS011;6932;51.438;5.470;2022-08-16T08:04:17;9.20;;;6.60;;
13720;SDS011;6932;51.438;5.470;2022-08-16T08:06:43;10.68;;;6.88;;
13720;SDS011;6932;51.438;5.470;2022-08-16T08:09:10;10.27;;;6.95;;
13720;SDS011;6932;51.438;5.470;2022-08-16T08:11:36;9.02;;;6.68;;
13720;SDS011;6932;51.438;5.470;2022-08-16T08:14:02;11.13;;;6.78;;
13720;SDS011;6932;51.438;5.470;2022-08-16T08:16:28;8.38;;;6.50;;
13720;SDS011;6932;51.438;5.470;2022-08-16T08:18:55;9.85;;;6.05;;
13720;SDS011;6932;51.438;5.470;2022-08-16T08:21:22;11.07;;;6.35;;
13720;SDS011;6932;51.438;5.470;2022-08-16T08:23:49;9.82;;;6.38;;
13720;SDS011;6932;51.438;5.470;2022-08-16T08:26:17;8.20;;;5.95;;
13720;SDS011;6932;51.438;5.470;2022-08-16T08:28:43;10.85;;;6.38;;
13720;SDS011;6932;51.438;5.470;2022-08-16T08:31:10;9.18;;;6.18;;
13720;SDS011;6932;51.438;5.470;2022-08-16T08:33:38;7.80;;;5.70;;
13720;SDS011;6932;51.438;5.470;2022-08-16T08:36:04;9.15;;;5.68;;
13720;SDS011;6932;51.438;5.470;2022-08-16T08:38:33;11.43;;;6.00;;
13720;SDS011;6932;51.438;5.470;2022-08-16T08:40:59;7.45;;;5.60;;
13720;SDS011;6932;51.438;5.470;2022-08-16T08:43:28;9.23;;;5.03;;
13720;SDS011;6932;51.438;5.470;2022-08-16T08:45:54;7.32;;;5.20;;
13720;SDS011;6932;51.438;5.470;2022-08-16T08:48:20;8.80;;;5.60;;
13720;SDS011;6932;51.438;5.470;2022-08-16T08:50:46;8.40;;;5.90;;
13720;SDS011;6932;51.438;5.470;2022-08-16T08:53:13;8.80;;;5.47;;
13720;SDS011;6932;51.438;5.470;2022-08-16T08:55:40;8.52;;;5.43;;
13720;SDS011;6932;51.438;5.470;2022-08-16T08:58:06;8.60;;;5.50;;
13720;SDS011;6932;51.438;5.470;2022-08-16T09:00:33;9.07;;;5.35;;
13720;SDS011;6932;51.438;5.470;2022-08-16T09:03:03;7.85;;;5.40;;
13720;SDS011;6932;51.438;5.470;2022-08-16T09:05:29;9.10;;;5.20;;
13720;SDS011;6932;51.438;5.470;2022-08-16T09:07:55;6.72;;;4.53;;
13720;SDS011;6932;51.438;5.470;2022-08-16T09:10:21;7.43;;;5.10;;
13720;SDS011;6932;51.438;5.470;2022-08-16T09:12:47;6.55;;;5.05;;
13720;SDS011;6932;51.438;5.470;2022-08-16T09:15:14;7.05;;;4.80;;
13720;SDS011;6932;51.438;5.470;2022-08-16T09:17:41;5.35;;;4.43;;
13720;SDS011;6932;51.438;5.470;2022-08-16T09:20:08;7.13;;;4.75;;
13720;SDS011;6932;51.438;5.470;2022-08-16T09:22:38;6.65;;;4.85;;
13720;SDS011;6932;51.438;5.470;2022-08-16T09:25:06;7.97;;;5.10;;
13720;SDS011;6932;51.438;5.470;2022-08-16T09:27:33;6.07;;;4.10;;
13720;SDS011;6932;51.438;5.470;2022-08-16T09:29:58;7.93;;;4.15;;
13720;SDS011;6932;51.438;5.470;2022-08-16T09:32:24;7.43;;;4.10;;
13720;SDS011;6932;51.438;5.470;2022-08-16T09:34:50;6.70;;;4.07;;
13720;SDS011;6932;51.438;5.470;2022-08-16T09:37:15;6.60;;;4.40;;
13720;SDS011;6932;51.438;5.470;2022-08-16T09:39:41;6.75;;;4.15;;
13720;SDS011;6932;51.438;5.470;2022-08-16T09:42:08;5.30;;;3.95;;
13720;SDS011;6932;51.438;5.470;2022-08-16T09:44:35;7.65;;;4.30;;
13720;SDS011;6932;51.438;5.470;2022-08-16T09:47:01;7.18;;;4.00;;
13720;SDS011;6932;51.438;5.470;2022-08-16T09:49:27;6.65;;;3.90;;
13720;SDS011;6932;51.438;5.470;2022-08-16T09:51:54;7.47;;;4.25;;
13720;SDS011;6932;51.438;5.470;2022-08-16T09:54:20;7.38;;;4.10;;
13720;SDS011;6932;51.438;5.470;2022-08-16T09:56:49;6.43;;;3.78;;
13720;SDS011;6932;51.438;5.470;2022-08-16T09:59:16;8.43;;;4.22;;
13720;SDS011;6932;51.438;5.470;2022-08-16T10:01:42;5.38;;;4.20;;
13720;SDS011;6932;51.438;5.470;2022-08-16T10:04:11;5.85;;;3.72;;
13720;SDS011;6932;51.438;5.470;2022-08-16T10:06:38;5.90;;;4.18;;
13720;SDS011;6932;51.438;5.470;2022-08-16T10:09:04;7.00;;;4.00;;
13720;SDS011;6932;51.438;5.470;2022-08-16T10:11:33;4.80;;;3.88;;
13720;SDS011;6932;51.438;5.470;2022-08-16T10:14:19;7.53;;;3.92;;
13720;SDS011;6932;51.438;5.470;2022-08-16T10:16:46;4.07;;;3.35;;
13720;SDS011;6932;51.438;5.470;2022-08-16T10:19:13;5.18;;;3.47;;
13720;SDS011;6932;51.438;5.470;2022-08-16T10:21:39;6.50;;;3.60;;
13720;SDS011;6932;51.438;5.470;2022-08-16T10:24:06;5.00;;;3.40;;
13720;SDS011;6932;51.438;5.470;2022-08-16T10:26:33;5.47;;;3.20;;
13720;SDS011;6932;51.438;5.470;2022-08-16T10:29:01;4.85;;;3.30;;
13720;SDS011;6932;51.438;5.470;2022-08-16T10:31:29;6.28;;;3.35;;
13720;SDS011;6932;51.438;5.470;2022-08-16T10:33:55;6.57;;;3.50;;
13720;SDS011;6932;51.438;5.470;2022-08-16T10:36:21;4.90;;;3.38;;
13720;SDS011;6932;51.438;5.470;2022-08-16T10:38:47;6.70;;;3.13;;
13720;SDS011;6932;51.438;5.470;2022-08-16T10:41:12;4.18;;;3.10;;
13720;SDS011;6932;51.438;5.470;2022-08-16T10:43:39;4.80;;;3.70;;
13720;SDS011;6932;51.438;5.470;2022-08-16T10:46:07;5.38;;;3.47;;
13720;SDS011;6932;51.438;5.470;2022-08-16T10:48:36;6.65;;;3.50;;
13720;SDS011;6932;51.438;5.470;2022-08-16T10:51:04;6.38;;;3.05;;
13720;SDS011;6932;51.438;5.470;2022-08-16T10:53:31;5.90;;;2.92;;
13720;SDS011;6932;51.438;5.470;2022-08-16T10:55:59;6.35;;;3.20;;
13720;SDS011;6932;51.438;5.470;2022-08-16T10:58:31;4.50;;;3.03;;
13720;SDS011;6932;51.438;5.470;2022-08-16T11:00:57;3.20;;;2.80;;
13720;SDS011;6932;51.438;5.470;2022-08-16T11:03:24;5.15;;;3.20;;
13720;SDS011;6932;51.438;5.470;2022-08-16T11:05:52;4.70;;;3.60;;
13720;SDS011;6932;51.438;5.470;2022-08-16T11:08:19;5.32;;;2.92;;
13720;SDS011;6932;51.438;5.470;2022-08-16T11:10:46;5.32;;;3.00;;
13720;SDS011;6932;51.438;5.470;2022-08-16T11:13:13;5.72;;;3.20;;
13720;SDS011;6932;51.438;5.470;2022-08-16T11:15:43;3.53;;;2.95;;
13720;SDS011;6932;51.438;5.470;2022-08-16T11:18:09;4.43;;;3.20;;
13720;SDS011;6932;51.438;5.470;2022-08-16T11:20:37;4.53;;;3.40;;
13720;SDS011;6932;51.438;5.470;2022-08-16T11:23:04;4.20;;;2.95;;
13720;SDS011;6932;51.438;5.470;2022-08-16T11:25:31;3.70;;;3.22;;
13720;SDS011;6932;51.438;5.470;2022-08-16T11:27:58;4.18;;;3.20;;
13720;SDS011;6932;51.438;5.470;2022-08-16T11:30:25;6.18;;;3.30;;
13720;SDS011;6932;51.438;5.470;2022-08-16T11:32:54;4.22;;;2.90;;
13720;SDS011;6932;51.438;5.470;2022-08-16T11:35:23;3.80;;;2.88;;
13720;SDS011;6932;51.438;5.470;2022-08-16T11:37:57;21.42;;;3.53;;
13720;SDS011;6932;51.438;5.470;2022-08-16T11:40:32;4.32;;;3.00;;
13720;SDS011;6932;51.438;5.470;2022-08-16T11:43:06;4.95;;;3.38;;
13720;SDS011;6932;51.438;5.470;2022-08-16T11:45:33;6.78;;;3.47;;
13720;SDS011;6932;51.438;5.470;2022-08-16T11:48:00;7.47;;;3.15;;
13720;SDS011;6932;51.438;5.470;2022-08-16T11:50:27;6.50;;;3.60;;
13720;SDS011;6932;51.438;5.470;2022-08-16T11:52:57;5.38;;;3.53;;
13720;SDS011;6932;51.438;5.470;2022-08-16T11:55:24;7.00;;;3.78;;
13720;SDS011;6932;51.438;5.470;2022-08-16T11:57:50;6.57;;;3.47;;
13720;SDS011;6932;51.438;5.470;2022-08-16T12:00:16;11.13;;;4.00;;
13720;SDS011;6932;51.438;5.470;2022-08-16T12:02:42;5.78;;;3.45;;
13720;SDS011;6932;51.438;5.470;2022-08-16T12:05:10;5.57;;;3.35;;
13720;SDS011;6932;51.438;5.470;2022-08-16T12:07:39;4.15;;;3.40;;
13720;SDS011;6932;51.438;5.470;2022-08-16T12:10:14;7.00;;;3.65;;
13720;SDS011;6932;51.438;5.470;2022-08-16T12:12:42;7.10;;;3.67;;
13720;SDS011;6932;51.438;5.470;2022-08-16T12:15:10;5.18;;;3.17;;
13720;SDS011;6932;51.438;5.470;2022-08-16T12:17:37;3.92;;;3.20;;
13720;SDS011;6932;51.438;5.470;2022-08-16T12:20:24;3.70;;;3.17;;
13720;SDS011;6932;51.438;5.470;2022-08-16T12:22:54;4.82;;;3.42;;
13720;SDS011;6932;51.438;5.470;2022-08-16T12:25:21;6.32;;;3.17;;
13720;SDS011;6932;51.438;5.470;2022-08-16T12:27:50;3.85;;;3.20;;
13720;SDS011;6932;51.438;5.470;2022-08-16T12:30:20;4.57;;;3.20;;
13720;SDS011;6932;51.438;5.470;2022-08-16T12:32:55;5.05;;;3.25;;
13720;SDS011;6932;51.438;5.470;2022-08-16T12:35:24;6.72;;;3.47;;
13720;SDS011;6932;51.438;5.470;2022-08-16T12:37:51;6.07;;;3.30;;
13720;SDS011;6932;51.438;5.470;2022-08-16T12:40:21;4.40;;;3.38;;
13720;SDS011;6932;51.438;5.470;2022-08-16T12:42:54;4.20;;;3.60;;
13720;SDS011;6932;51.438;5.470;2022-08-16T12:45:23;5.53;;;3.20;;
13720;SDS011;6932;51.438;5.470;2022-08-16T12:47:53;4.50;;;2.90;;
13720;SDS011;6932;51.438;5.470;2022-08-16T12:50:38;5.28;;;3.10;;
13720;SDS011;6932;51.438;5.470;2022-08-16T12:53:04;5.05;;;2.90;;
13720;SDS011;6932;51.438;5.470;2022-08-16T12:55:30;4.30;;;3.05;;
13720;SDS011;6932;51.438;5.470;2022-08-16T12:57:56;5.40;;;3.00;;
13720;SDS011;6932;51.438;5.470;2022-08-16T13:00:24;3.80;;;2.70;;
13720;SDS011;6932;51.438;5.470;2022-08-16T13:02:57;3.95;;;2.80;;
13720;SDS011;6932;51.438;5.470;2022-08-16T13:05:26;5.50;;;2.80;;
13720;SDS011;6932;51.438;5.470;2022-08-16T13:07:53;5.82;;;2.65;;
13720;SDS011;6932;51.438;5.470;2022-08-16T13:10:22;4.30;;;2.83;;
13720;SDS011;6932;51.438;5.470;2022-08-16T13:12:52;4.00;;;2.90;;
13720;SDS011;6932;51.438;5.470;2022-08-16T13:15:20;3.25;;;2.75;;
13720;SDS011;6932;51.438;5.470;2022-08-16T13:17:49;4.47;;;2.75;;
13720;SDS011;6932;51.438;5.470;2022-08-16T13:20:18;5.38;;;2.70;;
13720;SDS011;6932;51.438;5.470;2022-08-16T13:22:53;4.20;;;2.85;;
13720;SDS011;6932;51.438;5.470;2022-08-16T13:25:27;4.93;;;3.08;;
13720;SDS011;6932;51.438;5.470;2022-08-16T13:27:56;4.10;;;2.97;;
13720;SDS011;6932;51.438;5.470;2022-08-16T13:30:23;3.67;;;2.90;;
13720;SDS011;6932;51.438;5.470;2022-08-16T13:32:51;3.88;;;2.80;;
13720;SDS011;6932;51.438;5.470;2022-08-16T13:35:18;3.50;;;2.60;;
13720;SDS011;6932;51.438;5.470;2022-08-16T13:37:46;4.32;;;2.50;;
13720;SDS011;6932;51.438;5.470;2022-08-16T13:40:12;3.05;;;2.53;;
13720;SDS011;6932;51.438;5.470;2022-08-16T13:42:38;3.95;;;2.80;;
13720;SDS011;6932;51.438;5.470;2022-08-16T13:45:05;5.57;;;2.63;;
13720;SDS011;6932;51.438;5.470;2022-08-16T13:47:34;2.97;;;2.53;;
13720;SDS011;6932;51.438;5.470;2022-08-16T13:49:59;4.07;;;2.83;;
13720;SDS011;6932;51.438;5.470;2022-08-16T13:52:26;3.22;;;2.65;;
13720;SDS011;6932;51.438;5.470;2022-08-16T13:54:51;5.88;;;2.85;;
13720;SDS011;6932;51.438;5.470;2022-08-16T13:57:17;4.63;;;2.80;;
13720;SDS011;6932;51.438;5.470;2022-08-16T13:59:43;3.17;;;2.50;;
13720;SDS011;6932;51.438;5.470;2022-08-16T14:02:09;4.53;;;2.78;;
13720;SDS011;6932;51.438;5.470;2022-08-16T14:04:36;3.30;;;2.55;;
13720;SDS011;6932;51.438;5.470;2022-08-16T14:07:10;4.45;;;2.80;;
13720;SDS011;6932;51.438;5.470;2022-08-16T14:09:39;3.92;;;2.63;;
13720;SDS011;6932;51.438;5.470;2022-08-16T14:12:12;2.92;;;2.70;;
13720;SDS011;6932;51.438;5.470;2022-08-16T14:14:51;5.00;;;3.08;;
13720;SDS011;6932;51.438;5.470;2022-08-16T14:17:18;4.82;;;2.90;;
13720;SDS011;6932;51.438;5.470;2022-08-16T14:19:45;3.47;;;2.90;;
13720;SDS011;6932;51.438;5.470;2022-08-16T14:22:21;4.68;;;2.70;;
13720;SDS011;6932;51.438;5.470;2022-08-16T14:24:58;4.82;;;3.17;;
13720;SDS011;6932;51.438;5.470;2022-08-16T14:27:27;5.22;;;3.28;;
13720;SDS011;6932;51.438;5.470;2022-08-16T14:29:55;4.70;;;3.17;;
13720;SDS011;6932;51.438;5.470;2022-08-16T14:32:23;6.15;;;3.35;;
13720;SDS011;6932;51.438;5.470;2022-08-16T14:34:52;5.68;;;3.08;;
13720;SDS011;6932;51.438;5.470;2022-08-16T14:37:20;5.05;;;2.95;;
13720;SDS011;6932;51.438;5.470;2022-08-16T14:39:46;4.15;;;2.80;;
13720;SDS011;6932;51.438;5.470;2022-08-16T14:42:13;4.35;;;3.10;;
13720;SDS011;6932;51.438;5.470;2022-08-16T14:44:44;4.68;;;3.08;;
13720;SDS011;6932;51.438;5.470;2022-08-16T14:47:11;6.68;;;3.40;;
13720;SDS011;6932;51.438;5.470;2022-08-16T14:49:38;4.72;;;3.17;;
13720;SDS011;6932;51.438;5.470;2022-08-16T14:52:06;6.68;;;3.20;;
13720;SDS011;6932;51.438;5.470;2022-08-16T14:54:36;5.18;;;3.35;;
13720;SDS011;6932;51.438;5.470;2022-08-16T14:57:03;6.18;;;3.40;;
13720;SDS011;6932;51.438;5.470;2022-08-16T14:59:30;4.60;;;3.05;;
13720;SDS011;6932;51.438;5.470;2022-08-16T15:01:57;6.85;;;3.42;;
13720;SDS011;6932;51.438;5.470;2022-08-16T15:04:23;5.38;;;3.22;;